createdAt,value
2022-12-12T00:00:00.811Z,18
2022-12-12T00:01:04.432Z,17
2022-12-12T00:02:00.772Z,18
2022-12-12T00:03:00.932Z,16
2022-12-12T00:04:00.776Z,17
2022-12-12T00:05:00.810Z,18
2022-12-12T00:06:00.772Z,17
2022-12-12T00:07:00.775Z,18
2022-12-12T00:08:00.834Z,21
2022-12-12T00:09:00.772Z,19
2022-12-12T00:10:00.809Z,20
2022-12-12T00:11:00.773Z,19
2022-12-12T00:12:00.772Z,18
2022-12-12T00:13:00.776Z,16
2022-12-12T00:14:00.775Z,17
2022-12-12T00:15:00.774Z,16
2022-12-12T00:16:00.851Z,18
2022-12-12T00:17:00.772Z,17
2022-12-12T00:18:00.774Z,18
2022-12-12T00:19:00.796Z,19
2022-12-12T00:20:00.821Z,20
2022-12-12T00:21:00.773Z,19
2022-12-12T00:22:00.774Z,20
2022-12-12T00:23:01.799Z,19
2022-12-12T00:24:00.775Z,18
2022-12-12T00:26:00.773Z,20
2022-12-12T00:27:00.774Z,21
2022-12-12T00:28:00.774Z,22
2022-12-12T00:29:00.773Z,21
2022-12-12T00:30:00.775Z,20
2022-12-12T00:31:00.809Z,18
2022-12-12T00:32:00.772Z,16
2022-12-12T00:33:00.778Z,17
2022-12-12T00:35:00.838Z,19
2022-12-12T00:37:00.774Z,18
2022-12-12T00:38:00.775Z,19
2022-12-12T00:40:00.811Z,17
2022-12-12T00:41:00.775Z,18
2022-12-12T00:42:00.779Z,19
2022-12-12T00:43:00.777Z,16
2022-12-12T00:44:00.776Z,15
2022-12-12T00:45:00.818Z,15
2022-12-12T00:46:00.824Z,14
2022-12-12T00:48:00.773Z,16
2022-12-12T00:49:00.849Z,19
2022-12-12T00:51:00.872Z,18
2022-12-12T00:53:00.908Z,16
2022-12-12T00:54:00.778Z,14
2022-12-12T00:55:00.780Z,15
2022-12-12T00:57:00.779Z,17
2022-12-12T00:58:00.780Z,16
2022-12-12T00:59:00.780Z,17
2022-12-12T01:00:00.815Z,18
2022-12-12T01:01:00.778Z,20
2022-12-12T01:02:00.830Z,18
2022-12-12T01:04:00.844Z,17
2022-12-12T01:06:00.783Z,15
2022-12-12T01:08:00.838Z,17
2022-12-12T01:11:00.786Z,19
2022-12-12T01:14:00.911Z,20
2022-12-12T01:15:00.814Z,18
2022-12-12T01:16:00.843Z,16
2022-12-12T01:17:00.788Z,17
2022-12-12T01:18:00.786Z,15
2022-12-12T01:20:00.786Z,16
2022-12-12T01:21:00.787Z,18
2022-12-12T01:22:00.784Z,19
2022-12-12T01:23:00.788Z,18
2022-12-12T01:25:00.819Z,17
2022-12-12T01:27:00.877Z,14
2022-12-12T01:28:00.789Z,16
2022-12-12T01:29:00.793Z,17
2022-12-12T01:30:00.789Z,17
2022-12-12T01:31:00.865Z,16
2022-12-12T01:32:00.791Z,19
2022-12-12T01:33:00.790Z,17
2022-12-12T01:34:00.788Z,19
2022-12-12T01:35:00.788Z,21
2022-12-12T01:36:00.789Z,20
2022-12-12T01:37:00.854Z,19
2022-12-12T01:38:00.850Z,21
2022-12-12T01:39:00.854Z,20
2022-12-12T01:40:00.863Z,19
2022-12-12T01:41:00.883Z,20
2022-12-12T01:43:00.926Z,19
2022-12-12T01:45:00.790Z,18
2022-12-12T01:50:00.828Z,17
2022-12-12T01:51:00.794Z,18
2022-12-12T01:52:00.803Z,19
2022-12-12T01:53:00.794Z,18
2022-12-12T01:57:00.869Z,16
2022-12-12T01:58:00.795Z,18
2022-12-12T01:59:00.795Z,19
2022-12-12T02:00:00.847Z,18
2022-12-12T02:01:00.801Z,16
2022-12-12T02:02:00.852Z,15
2022-12-12T02:03:00.796Z,14
2022-12-12T02:05:00.795Z,15
2022-12-12T02:06:00.796Z,16
2022-12-12T02:07:00.811Z,17
2022-12-12T02:09:00.795Z,18
2022-12-12T02:12:00.793Z,19
2022-12-12T02:13:00.823Z,18
2022-12-12T02:14:00.797Z,15
2022-12-12T02:15:00.795Z,18
2022-12-12T02:20:00.898Z,17
2022-12-12T02:23:00.861Z,19
2022-12-12T02:25:00.827Z,18
2022-12-12T02:27:00.804Z,17
2022-12-12T02:28:00.798Z,16
2022-12-12T02:29:00.826Z,17
2022-12-12T02:30:00.799Z,17
2022-12-12T02:33:00.929Z,16
2022-12-12T02:34:00.801Z,15
2022-12-12T02:36:00.840Z,14
2022-12-12T02:38:00.802Z,16
2022-12-12T02:39:00.801Z,17
2022-12-12T02:41:00.834Z,18
2022-12-12T02:43:00.866Z,19
2022-12-12T02:44:00.799Z,17
2022-12-12T02:45:00.826Z,17
2022-12-12T02:46:00.828Z,16
2022-12-12T02:47:00.838Z,17
2022-12-12T02:48:00.799Z,18
2022-12-12T02:49:00.800Z,19
2022-12-12T02:50:00.798Z,20
2022-12-12T02:52:00.838Z,18
2022-12-12T02:53:00.796Z,16
2022-12-12T02:56:00.797Z,18
2022-12-12T02:57:00.841Z,20
2022-12-12T02:58:00.801Z,21
2022-12-12T02:59:00.796Z,22
2022-12-12T03:00:00.802Z,20
2022-12-12T03:02:00.923Z,17
2022-12-12T03:03:00.805Z,19
2022-12-12T03:04:00.805Z,17
2022-12-12T03:05:00.804Z,19
2022-12-12T03:06:00.807Z,18
2022-12-12T03:08:00.874Z,15
2022-12-12T03:09:00.810Z,16
2022-12-12T03:10:00.806Z,14
2022-12-12T03:11:00.804Z,13
2022-12-12T03:12:00.810Z,15
2022-12-12T03:13:00.893Z,17
2022-12-12T03:14:00.806Z,18
2022-12-12T03:15:00.807Z,17
2022-12-12T03:16:00.833Z,16
2022-12-12T03:17:00.808Z,13
2022-12-12T03:18:00.868Z,12
2022-12-12T03:19:00.810Z,10
2022-12-12T03:20:00.807Z,11
2022-12-12T03:21:00.816Z,13
2022-12-12T03:22:00.808Z,15
2022-12-12T03:23:00.856Z,16
2022-12-12T03:24:00.809Z,19
2022-12-12T03:27:00.820Z,20
2022-12-12T03:28:00.837Z,18
2022-12-12T03:29:00.810Z,19
2022-12-12T03:30:00.811Z,17
2022-12-12T03:31:00.812Z,15
2022-12-12T03:33:00.989Z,16
2022-12-12T03:36:00.894Z,17
2022-12-12T03:39:00.841Z,15
2022-12-12T03:40:00.813Z,16
2022-12-12T03:41:00.814Z,17
2022-12-12T03:43:00.943Z,19
2022-12-12T03:45:00.813Z,22
2022-12-12T03:46:00.861Z,19
2022-12-12T03:47:00.814Z,18
2022-12-12T03:49:00.815Z,19
2022-12-12T03:50:00.816Z,16
2022-12-12T03:51:00.818Z,18
2022-12-12T03:54:00.909Z,16
2022-12-12T03:56:00.816Z,15
2022-12-12T03:57:00.904Z,16
2022-12-12T03:58:00.840Z,14
2022-12-12T04:00:00.872Z,15
2022-12-12T04:01:00.869Z,16
2022-12-12T04:03:00.883Z,17
2022-12-12T04:05:00.996Z,20
2022-12-12T04:06:00.821Z,19
2022-12-12T04:07:00.964Z,17
2022-12-12T04:09:00.819Z,16
2022-12-12T04:10:00.892Z,14
2022-12-12T04:12:00.820Z,16
2022-12-12T04:15:00.948Z,16
2022-12-12T04:19:00.821Z,17
2022-12-12T04:20:00.847Z,16
2022-12-12T04:21:00.818Z,18
2022-12-12T04:22:00.977Z,20
2022-12-12T04:24:00.884Z,21
2022-12-12T04:25:00.847Z,20
2022-12-12T04:27:00.849Z,18
2022-12-12T04:28:00.822Z,17
2022-12-12T04:29:00.826Z,16
2022-12-12T04:30:00.824Z,17
2022-12-12T04:31:00.824Z,16
2022-12-12T04:32:00.841Z,17
2022-12-12T04:33:00.823Z,18
2022-12-12T04:34:00.830Z,19
2022-12-12T04:35:00.823Z,18
2022-12-12T04:36:00.821Z,17
2022-12-12T04:37:00.825Z,15
2022-12-12T04:39:00.833Z,13
2022-12-12T04:41:00.826Z,14
2022-12-12T04:42:00.824Z,15
2022-12-12T04:43:00.861Z,17
2022-12-12T04:45:00.826Z,18
2022-12-12T04:46:00.881Z,17
2022-12-12T04:48:00.826Z,15
2022-12-12T04:50:00.874Z,13
2022-12-12T04:51:00.827Z,15
2022-12-12T04:52:00.829Z,17
2022-12-12T04:53:00.825Z,18
2022-12-12T04:54:00.825Z,20
2022-12-12T04:55:00.825Z,23
2022-12-12T04:56:00.826Z,20
2022-12-12T04:57:00.826Z,18
2022-12-12T05:00:00.893Z,15
2022-12-12T05:01:00.894Z,17
2022-12-12T05:02:00.926Z,16
2022-12-12T05:03:00.828Z,15
2022-12-12T05:04:00.830Z,14
2022-12-12T05:05:00.837Z,15
2022-12-12T05:06:00.975Z,16
2022-12-12T05:07:00.893Z,18
2022-12-12T05:08:00.883Z,17
2022-12-12T05:09:00.829Z,18
2022-12-12T05:11:00.991Z,19
2022-12-12T05:14:00.891Z,17
2022-12-12T05:15:00.834Z,17
2022-12-12T05:16:00.863Z,15
2022-12-12T05:18:00.829Z,16
2022-12-12T05:19:00.830Z,17
2022-12-12T05:20:00.827Z,15
2022-12-12T05:21:00.831Z,18
2022-12-12T05:23:00.965Z,17
2022-12-12T05:24:00.836Z,18
2022-12-12T05:26:00.836Z,16
2022-12-12T05:28:00.831Z,17
2022-12-12T05:29:05.417Z,16
2022-12-12T05:30:00.834Z,17
2022-12-12T05:31:00.867Z,15
2022-12-12T05:32:00.864Z,16
2022-12-12T05:34:00.898Z,17
2022-12-12T05:35:00.834Z,16
2022-12-12T05:37:00.837Z,15
2022-12-12T05:40:00.836Z,17
2022-12-12T05:42:00.829Z,18
2022-12-12T05:43:00.834Z,17
2022-12-12T05:45:00.837Z,18
2022-12-12T05:47:00.832Z,17
2022-12-12T05:48:00.860Z,18
2022-12-12T05:50:00.836Z,17
2022-12-12T05:51:00.835Z,16
2022-12-12T05:52:00.831Z,17
2022-12-12T05:53:00.835Z,18
2022-12-12T05:56:00.847Z,19
2022-12-12T05:57:00.837Z,21
2022-12-12T05:59:00.839Z,20
2022-12-12T06:00:00.873Z,20
2022-12-12T06:02:00.906Z,18
2022-12-12T06:03:00.836Z,17
2022-12-12T06:05:00.907Z,16
2022-12-12T06:06:00.841Z,15
2022-12-12T06:07:00.838Z,16
2022-12-12T06:09:00.837Z,17
2022-12-12T06:10:00.837Z,18
2022-12-12T06:13:00.966Z,17
2022-12-12T06:14:00.838Z,16
2022-12-12T06:15:00.841Z,17
2022-12-12T06:16:00.868Z,16
2022-12-12T06:17:00.838Z,17
2022-12-12T06:18:00.844Z,16
2022-12-12T06:19:00.839Z,17
2022-12-12T06:21:00.861Z,18
2022-12-12T06:22:00.841Z,17
2022-12-12T06:25:00.937Z,19
2022-12-12T06:26:00.840Z,20
2022-12-12T06:28:00.840Z,22
2022-12-12T06:29:00.848Z,23
2022-12-12T06:30:00.845Z,21
2022-12-12T06:31:00.886Z,19
2022-12-12T06:33:00.905Z,18
2022-12-12T06:34:00.841Z,16
2022-12-12T06:35:00.851Z,17
2022-12-12T06:37:00.866Z,18
2022-12-12T06:38:00.844Z,17
2022-12-12T06:39:00.846Z,18
2022-12-12T06:40:00.840Z,17
2022-12-12T06:43:00.970Z,19
2022-12-12T06:45:00.844Z,19
2022-12-12T06:47:00.844Z,17
2022-12-12T06:48:00.845Z,15
2022-12-12T06:49:00.844Z,16
2022-12-12T06:52:00.843Z,17
2022-12-12T06:53:00.869Z,16
2022-12-12T06:54:00.849Z,18
2022-12-12T06:58:00.851Z,19
2022-12-12T06:59:00.845Z,16
2022-12-12T07:00:00.885Z,16
2022-12-12T07:01:00.847Z,14
2022-12-12T07:02:00.944Z,15
2022-12-12T07:05:00.912Z,16
2022-12-12T07:06:00.850Z,17
2022-12-12T07:07:00.853Z,18
2022-12-12T07:09:00.879Z,17
2022-12-12T07:10:00.846Z,16
2022-12-12T07:11:00.851Z,15
2022-12-12T07:14:00.914Z,18
2022-12-12T07:15:00.850Z,19
2022-12-12T07:16:00.919Z,20
2022-12-12T07:18:00.860Z,19
2022-12-12T07:19:00.858Z,17
2022-12-12T07:20:00.850Z,18
2022-12-12T07:22:05.890Z,16
2022-12-12T07:25:00.995Z,15
2022-12-12T07:27:00.856Z,16
2022-12-12T07:28:00.850Z,20
2022-12-12T07:29:00.850Z,19
2022-12-12T07:30:00.851Z,19
2022-12-12T07:32:00.854Z,18
2022-12-12T07:33:00.854Z,16
2022-12-12T07:34:00.851Z,18
2022-12-12T07:36:00.854Z,16
2022-12-12T07:37:03.026Z,18
2022-12-12T07:38:00.854Z,19
2022-12-12T07:39:00.853Z,17
2022-12-12T07:40:00.857Z,16
2022-12-12T07:41:00.876Z,17
2022-12-12T07:42:00.853Z,16
2022-12-12T07:43:00.848Z,15
2022-12-12T07:44:00.855Z,14
2022-12-12T07:45:00.942Z,16
2022-12-12T07:46:00.887Z,18
2022-12-12T07:47:00.940Z,16
2022-12-12T07:48:00.855Z,15
2022-12-12T07:49:00.853Z,16
2022-12-12T07:50:00.855Z,15
2022-12-12T07:51:00.854Z,14
2022-12-12T07:52:00.857Z,17
2022-12-12T07:56:00.922Z,19
2022-12-12T07:59:00.881Z,20
2022-12-12T08:00:00.883Z,20
2022-12-12T08:01:00.870Z,18
2022-12-12T08:02:00.914Z,16
2022-12-12T08:05:01.104Z,14
2022-12-12T08:06:00.853Z,16
2022-12-12T08:07:05.511Z,17
2022-12-12T08:08:00.920Z,18
2022-12-12T08:12:00.857Z,17
2022-12-12T08:13:00.859Z,15
2022-12-12T08:14:00.858Z,16
2022-12-12T08:15:00.885Z,16
2022-12-12T08:16:00.913Z,13
2022-12-12T08:17:00.859Z,15
2022-12-12T08:19:00.859Z,14
2022-12-12T08:20:00.871Z,16
2022-12-12T08:21:00.864Z,19
2022-12-12T08:22:00.859Z,20
2022-12-12T08:24:00.985Z,19
2022-12-12T08:25:00.861Z,18
2022-12-12T08:26:00.860Z,16
2022-12-12T08:29:00.860Z,17
2022-12-12T08:30:00.862Z,17
2022-12-12T08:32:00.888Z,16
2022-12-12T08:33:04.950Z,15
2022-12-12T08:35:00.864Z,16
2022-12-12T08:36:00.866Z,15
2022-12-12T08:37:00.864Z,16
2022-12-12T08:38:00.863Z,17
2022-12-12T08:39:00.865Z,16
2022-12-12T08:40:00.963Z,14
2022-12-12T08:41:00.863Z,15
2022-12-12T08:42:00.863Z,16
2022-12-12T08:44:00.928Z,20
2022-12-12T08:45:00.867Z,21
2022-12-12T08:46:00.863Z,20
2022-12-12T08:47:00.898Z,18
2022-12-12T08:48:00.890Z,19
2022-12-12T08:49:00.865Z,17
2022-12-12T08:50:00.860Z,18
2022-12-12T08:51:00.867Z,20
2022-12-12T08:52:00.866Z,19
2022-12-12T08:53:00.866Z,18
2022-12-12T08:54:00.868Z,16
2022-12-12T08:56:00.869Z,13
2022-12-12T08:57:00.869Z,15
2022-12-12T08:58:00.875Z,16
2022-12-12T08:59:00.868Z,17
2022-12-12T09:00:00.905Z,17
2022-12-12T09:02:01.027Z,16
2022-12-12T09:03:00.897Z,15
2022-12-12T09:04:00.893Z,14
2022-12-12T09:05:00.909Z,13
2022-12-12T09:06:00.863Z,15
2022-12-12T09:07:04.994Z,16
2022-12-12T09:08:00.905Z,15
2022-12-12T09:09:00.870Z,16
2022-12-12T09:10:00.870Z,18
2022-12-12T09:13:00.998Z,17
2022-12-12T09:14:00.879Z,16
2022-12-12T09:15:00.873Z,15
2022-12-12T09:17:00.871Z,17
2022-12-12T09:18:00.872Z,18
2022-12-12T09:20:00.901Z,17
2022-12-12T09:21:00.873Z,16
2022-12-12T09:23:00.934Z,15
2022-12-12T09:24:00.873Z,17
2022-12-12T09:25:00.909Z,18
2022-12-12T09:27:00.872Z,17
2022-12-12T09:29:00.873Z,16
2022-12-12T09:30:00.880Z,18
2022-12-12T09:31:00.982Z,19
2022-12-12T09:33:01.003Z,21
2022-12-12T09:34:00.943Z,22
2022-12-12T09:35:00.873Z,20
2022-12-12T09:36:00.905Z,19
2022-12-12T09:38:00.876Z,17
2022-12-12T09:39:00.878Z,15
2022-12-12T09:40:00.873Z,16
2022-12-12T09:41:00.876Z,17
2022-12-12T09:42:00.876Z,19
2022-12-12T09:43:00.886Z,20
2022-12-12T09:45:00.875Z,20
2022-12-12T09:46:00.948Z,19
2022-12-12T09:47:00.877Z,17
2022-12-12T09:48:00.874Z,15
2022-12-12T09:49:00.878Z,18
2022-12-12T09:50:00.880Z,17
2022-12-12T09:51:00.880Z,16
2022-12-12T09:52:00.917Z,18
2022-12-12T09:53:00.878Z,16
2022-12-12T09:54:00.880Z,15
2022-12-12T09:57:00.878Z,14
2022-12-12T09:58:00.885Z,15
2022-12-12T09:59:00.880Z,17
2022-12-12T10:00:00.915Z,17
2022-12-12T10:01:00.929Z,19
2022-12-12T10:02:00.955Z,17
2022-12-12T10:06:28.432Z,16
2022-12-12T10:07:00.865Z,17
2022-12-12T10:08:00.945Z,16
2022-12-12T10:09:00.884Z,15
2022-12-12T10:10:00.884Z,16
2022-12-12T10:11:00.887Z,18
2022-12-12T10:14:00.949Z,20
2022-12-12T10:15:00.886Z,17
2022-12-12T10:16:00.956Z,16
2022-12-12T10:17:00.940Z,18
2022-12-12T10:18:00.885Z,17
2022-12-12T10:19:00.886Z,16
2022-12-12T10:20:00.930Z,18
2022-12-12T10:24:00.914Z,17
2022-12-12T10:27:00.885Z,15
2022-12-12T10:28:00.889Z,16
2022-12-12T10:29:00.888Z,17
2022-12-12T10:30:00.882Z,18
2022-12-12T10:31:00.890Z,19
2022-12-12T10:33:00.962Z,18
2022-12-12T10:34:01.607Z,17
2022-12-12T10:35:00.887Z,16
2022-12-12T10:38:00.886Z,17
2022-12-12T10:39:00.888Z,18
2022-12-12T10:40:00.916Z,19
2022-12-12T10:41:00.905Z,20
2022-12-12T10:42:00.888Z,21
2022-12-12T10:43:00.889Z,20
2022-12-12T10:45:00.926Z,19
2022-12-12T10:46:00.989Z,18
2022-12-12T10:47:00.934Z,15
2022-12-12T10:48:00.890Z,17
2022-12-12T10:49:00.892Z,16
2022-12-12T10:54:00.983Z,17
2022-12-12T10:55:00.890Z,18
2022-12-12T10:56:00.948Z,17
2022-12-12T10:57:00.891Z,18
2022-12-12T10:59:00.892Z,17
2022-12-12T11:00:00.891Z,16
2022-12-12T11:02:13.505Z,14
2022-12-12T11:03:01.188Z,15
2022-12-12T11:04:00.991Z,17
2022-12-12T11:05:00.968Z,18
2022-12-12T11:06:00.901Z,19
2022-12-12T11:07:00.974Z,20
2022-12-12T11:08:01.011Z,18
2022-12-12T11:09:00.902Z,19
2022-12-12T11:11:00.916Z,18
2022-12-12T11:14:01.075Z,15
2022-12-12T11:15:00.911Z,15
2022-12-12T11:16:01.062Z,17
2022-12-12T11:17:00.952Z,16
2022-12-12T11:19:01.096Z,17
2022-12-12T11:20:01.027Z,18
2022-12-12T11:21:00.894Z,15
2022-12-12T11:22:00.895Z,16
2022-12-12T11:24:00.990Z,15
2022-12-12T11:27:00.896Z,16
2022-12-12T11:28:04.905Z,18
2022-12-12T11:29:01.232Z,19
2022-12-12T11:30:00.990Z,17
2022-12-12T11:31:00.899Z,19
2022-12-12T11:32:00.936Z,18
2022-12-12T11:33:00.899Z,17
2022-12-12T11:34:00.901Z,18
2022-12-12T11:37:00.893Z,19
2022-12-12T11:38:00.900Z,18
2022-12-12T11:39:00.899Z,17
2022-12-12T11:41:00.899Z,16
2022-12-12T11:42:00.900Z,14
2022-12-12T11:43:00.901Z,15
2022-12-12T11:44:00.899Z,14
2022-12-12T11:45:00.900Z,14
2022-12-12T11:48:00.926Z,15
2022-12-12T11:49:00.900Z,16
2022-12-12T11:50:03.838Z,18
2022-12-12T11:51:00.902Z,19
2022-12-12T11:53:00.963Z,18
2022-12-12T11:55:00.902Z,16
2022-12-12T11:56:00.904Z,15
2022-12-12T11:57:00.901Z,16
2022-12-12T12:00:00.906Z,17
2022-12-12T12:01:00.903Z,19
2022-12-12T12:02:00.982Z,18
2022-12-12T12:03:01.083Z,19
2022-12-12T12:05:00.929Z,18
2022-12-12T12:06:00.933Z,15
2022-12-12T12:07:01.145Z,16
2022-12-12T12:08:01.002Z,17
2022-12-12T12:10:00.989Z,19
2022-12-12T12:12:01.000Z,18
2022-12-12T12:13:00.938Z,17
2022-12-12T12:14:00.995Z,15
2022-12-12T12:15:01.029Z,14
2022-12-12T12:16:00.920Z,13
2022-12-12T12:17:01.016Z,14
2022-12-12T12:19:00.995Z,16
2022-12-12T12:20:00.910Z,18
2022-12-12T12:21:01.013Z,19
2022-12-12T12:23:00.987Z,20
2022-12-12T12:24:00.913Z,18
2022-12-12T12:26:00.910Z,19
2022-12-12T12:27:00.936Z,18
2022-12-12T12:29:00.914Z,17
2022-12-12T12:30:00.914Z,16
2022-12-12T12:32:00.986Z,18
2022-12-12T12:33:01.081Z,16
2022-12-12T12:34:01.050Z,17
2022-12-12T12:35:00.956Z,18
2022-12-12T12:37:00.940Z,16
2022-12-12T12:38:00.919Z,17
2022-12-12T12:41:00.921Z,16
2022-12-12T12:42:00.935Z,17
2022-12-12T12:43:00.918Z,18
2022-12-12T12:44:00.917Z,17
2022-12-12T12:45:00.918Z,18
2022-12-12T12:46:00.999Z,19
2022-12-12T12:47:00.925Z,18
2022-12-12T12:48:03.507Z,17
2022-12-12T12:49:00.919Z,19
2022-12-12T12:50:00.958Z,17
2022-12-12T12:51:00.916Z,18
2022-12-12T12:52:00.920Z,19
2022-12-12T12:55:01.038Z,18
2022-12-12T12:56:00.920Z,15
2022-12-12T12:57:00.985Z,16
2022-12-12T12:58:00.924Z,15
2022-12-12T12:59:00.920Z,14
2022-12-12T13:00:00.920Z,14
2022-12-12T13:03:01.016Z,15
2022-12-12T13:04:00.996Z,14
2022-12-12T13:05:00.992Z,17
2022-12-12T13:06:02.020Z,18
2022-12-12T13:08:01.023Z,20
2022-12-12T13:09:00.920Z,22
2022-12-12T13:10:00.985Z,21
2022-12-12T13:12:00.954Z,20
2022-12-12T13:13:00.926Z,17
2022-12-12T13:14:00.920Z,16
2022-12-12T13:15:00.921Z,15
2022-12-12T13:16:01.070Z,16
2022-12-12T13:17:00.922Z,17
2022-12-12T13:19:00.924Z,20
2022-12-12T13:20:00.986Z,19
2022-12-12T13:21:00.924Z,18
2022-12-12T13:22:00.921Z,17
2022-12-12T13:23:00.989Z,19
2022-12-12T13:24:00.986Z,17
2022-12-12T13:25:00.930Z,18
2022-12-12T13:26:00.921Z,19
2022-12-12T13:27:00.922Z,20
2022-12-12T13:28:00.948Z,19
2022-12-12T13:29:01.053Z,22
2022-12-12T13:30:00.928Z,19
2022-12-12T13:31:01.014Z,20
2022-12-12T13:34:00.991Z,18
2022-12-12T13:38:00.925Z,19
2022-12-12T13:39:00.925Z,20
2022-12-12T13:40:00.926Z,21
2022-12-12T13:41:00.921Z,19
2022-12-12T13:42:00.992Z,18
2022-12-12T13:43:07.349Z,17
2022-12-12T13:45:01.027Z,17
2022-12-12T13:48:00.927Z,16
2022-12-12T13:50:00.926Z,13
2022-12-12T13:51:00.927Z,14
2022-12-12T13:52:00.929Z,13
2022-12-12T13:53:00.926Z,14
2022-12-12T13:55:00.927Z,15
2022-12-12T13:57:00.928Z,18
2022-12-12T13:58:00.929Z,19
2022-12-12T14:00:00.933Z,20
2022-12-12T14:01:00.955Z,22
2022-12-12T14:02:01.054Z,20
2022-12-12T14:04:00.994Z,19
2022-12-12T14:06:00.926Z,17
2022-12-12T14:07:00.953Z,16
2022-12-12T14:08:00.986Z,15
2022-12-12T14:09:00.968Z,16
2022-12-12T14:10:00.932Z,15
2022-12-12T14:12:00.932Z,17
2022-12-12T14:13:00.933Z,18
2022-12-12T14:15:00.971Z,18
2022-12-12T14:16:00.988Z,17
2022-12-12T14:18:00.978Z,15
2022-12-12T14:19:00.935Z,14
2022-12-12T14:20:00.960Z,13
2022-12-12T14:21:00.933Z,15
2022-12-12T14:22:00.929Z,14
2022-12-12T14:24:00.997Z,15
2022-12-12T14:25:01.059Z,17
2022-12-12T14:26:00.933Z,18
2022-12-12T14:27:00.935Z,19
2022-12-12T14:29:00.998Z,21
2022-12-12T14:30:00.934Z,20
2022-12-12T14:31:01.067Z,17
2022-12-12T14:32:00.936Z,15
2022-12-12T14:33:01.000Z,16
2022-12-12T14:34:00.959Z,14
2022-12-12T14:35:01.070Z,13
2022-12-12T14:36:00.939Z,14
2022-12-12T14:37:00.933Z,15
2022-12-12T14:38:00.935Z,18
2022-12-12T14:40:00.929Z,19
2022-12-12T14:42:00.937Z,20
2022-12-12T14:43:16.349Z,18
2022-12-12T14:45:00.915Z,17
2022-12-12T14:47:00.934Z,15
2022-12-12T14:50:00.958Z,16
2022-12-12T14:51:01.000Z,17
2022-12-12T14:52:00.941Z,18
2022-12-12T14:54:00.998Z,16
2022-12-12T14:55:00.933Z,17
2022-12-12T14:56:00.935Z,16
2022-12-12T14:57:00.935Z,17
2022-12-12T14:58:00.976Z,16
2022-12-12T14:59:00.936Z,18
2022-12-12T15:00:00.973Z,18
2022-12-12T15:01:00.936Z,17
2022-12-12T15:02:00.942Z,16
2022-12-12T15:03:01.027Z,18
2022-12-12T15:07:00.961Z,17
2022-12-12T15:09:00.936Z,15
2022-12-12T15:10:00.939Z,14
2022-12-12T15:13:01.130Z,13
2022-12-12T15:15:00.940Z,14
2022-12-12T15:17:00.939Z,15
2022-12-12T15:18:00.953Z,17
2022-12-12T15:20:00.967Z,16
2022-12-12T15:21:00.937Z,19
2022-12-12T15:22:01.004Z,18
2022-12-12T15:23:01.093Z,16
2022-12-12T15:25:00.941Z,17
2022-12-12T15:26:01.006Z,16
2022-12-12T15:28:00.938Z,17
2022-12-12T15:30:00.946Z,19
2022-12-12T15:32:01.124Z,20
2022-12-12T15:33:00.943Z,19
2022-12-12T15:35:01.072Z,17
2022-12-12T15:37:01.008Z,18
2022-12-12T15:38:02.098Z,19
2022-12-12T15:40:00.977Z,20
2022-12-12T15:42:00.944Z,19
2022-12-12T15:43:01.013Z,16
2022-12-12T15:44:00.939Z,17
2022-12-12T15:45:01.023Z,17
2022-12-12T15:46:00.943Z,16
2022-12-12T15:47:01.033Z,17
2022-12-12T15:48:00.948Z,19
2022-12-12T15:49:01.021Z,18
2022-12-12T15:51:01.015Z,20
2022-12-12T15:53:01.075Z,19
2022-12-12T15:54:00.948Z,20
2022-12-12T15:56:00.972Z,17
2022-12-12T15:58:01.014Z,18
2022-12-12T15:59:01.021Z,15
2022-12-12T16:00:00.947Z,14
2022-12-12T16:01:01.086Z,15
2022-12-12T16:04:01.031Z,16
2022-12-12T16:05:01.024Z,18
2022-12-12T16:06:00.951Z,19
2022-12-12T16:07:00.955Z,17
2022-12-12T16:09:01.019Z,19
2022-12-12T16:10:00.955Z,18
2022-12-12T16:11:01.017Z,16
2022-12-12T16:13:01.221Z,17
2022-12-12T16:14:00.952Z,16
2022-12-12T16:15:01.017Z,17
2022-12-12T16:16:00.972Z,18
2022-12-12T16:17:01.016Z,19
2022-12-12T16:19:01.016Z,20
2022-12-12T16:22:00.952Z,19
2022-12-12T16:25:01.082Z,16
2022-12-12T16:26:00.955Z,15
2022-12-12T16:28:00.954Z,14
2022-12-12T16:29:00.974Z,15
2022-12-12T16:30:01.208Z,17
2022-12-12T16:31:01.014Z,18
2022-12-12T16:32:00.951Z,19
2022-12-12T16:33:00.987Z,20
2022-12-12T16:34:00.953Z,19
2022-12-12T16:35:01.114Z,18
2022-12-12T16:38:00.955Z,17
2022-12-12T16:41:01.040Z,15
2022-12-12T16:42:00.958Z,14
2022-12-12T16:43:06.372Z,16
2022-12-12T16:45:00.983Z,17
2022-12-12T16:47:00.960Z,19
2022-12-12T16:48:00.961Z,16
2022-12-12T16:49:00.960Z,17
2022-12-12T16:50:01.212Z,15
2022-12-12T16:51:00.961Z,16
2022-12-12T16:52:01.024Z,14
2022-12-12T16:54:01.138Z,13
2022-12-12T16:55:01.030Z,15
2022-12-12T16:56:01.074Z,14
2022-12-12T16:58:01.037Z,15
2022-12-12T17:00:00.962Z,15
2022-12-12T17:01:01.083Z,17
2022-12-12T17:04:01.121Z,19
2022-12-12T17:07:00.962Z,18
2022-12-12T17:08:01.125Z,17
2022-12-12T17:09:00.963Z,15
2022-12-12T17:10:01.031Z,16
2022-12-12T17:11:09.770Z,15
2022-12-12T17:12:01.989Z,16
2022-12-12T17:13:01.034Z,18
2022-12-12T17:14:00.963Z,19
2022-12-12T17:15:01.037Z,17
2022-12-12T17:16:01.010Z,16
2022-12-12T17:17:01.056Z,14
2022-12-12T17:19:00.966Z,13
2022-12-12T17:20:00.968Z,15
2022-12-12T17:22:00.966Z,16
2022-12-12T17:24:01.033Z,17
2022-12-12T17:25:00.964Z,16
2022-12-12T17:26:03.805Z,17
2022-12-12T17:27:00.968Z,18
2022-12-12T17:28:00.968Z,19
2022-12-12T17:29:00.969Z,20
2022-12-12T17:30:00.969Z,18
2022-12-12T17:32:01.026Z,17
2022-12-12T17:33:16.709Z,15
2022-12-12T17:34:00.956Z,14
2022-12-12T17:35:00.981Z,15
2022-12-12T17:36:01.062Z,16
2022-12-12T17:37:00.969Z,17
2022-12-12T17:39:00.971Z,16
2022-12-12T17:40:00.970Z,17
2022-12-12T17:41:00.965Z,16
2022-12-12T17:44:01.044Z,18
2022-12-12T17:45:00.969Z,17
2022-12-12T17:47:00.969Z,18
2022-12-12T17:48:00.997Z,19
2022-12-12T17:49:00.993Z,18
2022-12-12T17:50:00.975Z,17
2022-12-12T17:52:00.971Z,16
2022-12-12T17:53:00.971Z,15
2022-12-12T17:57:01.032Z,16
2022-12-12T18:00:00.973Z,17
2022-12-12T18:01:01.030Z,18
2022-12-12T18:02:01.106Z,15
2022-12-12T18:05:01.128Z,14
2022-12-12T18:07:00.974Z,16
2022-12-12T18:08:01.089Z,17
2022-12-12T18:09:01.040Z,16
2022-12-12T18:10:00.977Z,17
2022-12-12T18:12:00.972Z,15
2022-12-12T18:13:00.974Z,14
2022-12-12T18:14:01.036Z,15
2022-12-12T18:15:01.109Z,14
2022-12-12T18:17:01.115Z,16
2022-12-12T18:18:00.975Z,15
2022-12-12T18:19:00.979Z,17
2022-12-12T18:21:00.997Z,16
2022-12-12T18:23:00.971Z,18
2022-12-12T18:24:00.976Z,17
2022-12-12T18:25:00.983Z,16
2022-12-12T18:26:00.975Z,17
2022-12-12T18:27:00.980Z,16
2022-12-12T18:28:00.975Z,14
2022-12-12T18:29:00.977Z,15
2022-12-12T18:30:00.975Z,16
2022-12-12T18:32:01.116Z,15
2022-12-12T18:33:03.053Z,19
2022-12-12T18:34:01.115Z,18
2022-12-12T18:35:00.987Z,17
2022-12-12T18:37:01.000Z,18
2022-12-12T18:38:01.057Z,15
2022-12-12T18:40:00.978Z,17
2022-12-12T18:41:00.978Z,18
2022-12-12T18:42:00.979Z,17
2022-12-12T18:43:00.978Z,19
2022-12-12T18:45:00.977Z,16
2022-12-12T18:46:00.978Z,14
2022-12-12T18:47:00.977Z,16
2022-12-12T18:48:00.976Z,17
2022-12-12T18:49:00.976Z,18
2022-12-12T18:50:00.979Z,19
2022-12-12T18:51:01.018Z,20
2022-12-12T18:52:00.979Z,19
2022-12-12T18:53:01.001Z,16
2022-12-12T18:55:00.978Z,17
2022-12-12T18:56:01.050Z,16
2022-12-12T18:57:00.977Z,17
2022-12-12T18:58:00.985Z,20
2022-12-12T19:00:00.980Z,19
2022-12-12T19:01:01.072Z,20
2022-12-12T19:02:01.073Z,19
2022-12-12T19:03:00.976Z,18
2022-12-12T19:08:01.039Z,17
2022-12-12T19:11:01.010Z,18
2022-12-12T19:13:00.983Z,19
2022-12-12T19:14:00.983Z,18
2022-12-12T19:15:16.528Z,18
2022-12-12T19:16:00.963Z,17
2022-12-12T19:18:00.983Z,19
2022-12-12T19:19:00.979Z,18
2022-12-12T19:20:00.981Z,19
2022-12-12T19:21:00.984Z,18
2022-12-12T19:22:05.254Z,17
2022-12-12T19:24:00.983Z,19
2022-12-12T19:27:01.013Z,21
2022-12-12T19:28:00.984Z,18
2022-12-12T19:29:00.985Z,20
2022-12-12T19:30:00.985Z,18
2022-12-12T19:31:01.031Z,17
2022-12-12T19:32:00.995Z,16
2022-12-12T19:33:00.987Z,18
2022-12-12T19:34:00.987Z,14
2022-12-12T19:37:00.989Z,13
2022-12-12T19:38:00.988Z,12
2022-12-12T19:39:00.988Z,13
2022-12-12T19:40:00.987Z,16
2022-12-12T19:43:01.143Z,17
2022-12-12T19:45:00.990Z,16